Time;durP1;ratioP1;P1;durP2;ratioP2;P2;SDS_P1;SDS_P2;PMS_P1;PMS_P2;Temp;Humidity;BMP_temperature;BMP_pressure;BME280_temperature;BME280_humidity;BME280_pressure;Samples;Min_cycle;Max_cycle;Signal;HPM_P1;HPM_P2
2022/03/17 00:02:30;;;;;;;17.27;15.50;;;;;;;11.51;100.00;101831.16;5283470;28;20031;-70
2022/03/17 00:05:03;;;;;;;17.48;15.68;;;;;;;11.48;100.00;101831.41;5285571;28;20021;-70
2022/03/17 00:07:36;;;;;;;17.52;15.65;;;;;;;11.52;100.00;101832.88;5284031;28;20032;-70
2022/03/17 00:10:10;;;;;;;19.63;15.98;;;;;;;11.50;100.00;101826.88;5283628;28;20016;-70
2022/03/17 00:12:43;;;;;;;19.08;16.27;;;;;;;11.48;100.00;101825.31;5283598;28;20051;-70
2022/03/17 00:15:15;;;;;;;;;;;;;;;11.86;100.00;101817.28;5286952;28;20036;-70
2022/03/17 00:17:46;;;;;;;19.38;14.98;;;;;;;11.46;100.00;101820.19;5285672;28;19916;-70
2022/03/17 00:20:18;;;;;;;17.10;15.10;;;;;;;11.43;100.00;101810.72;5286136;28;20450;-70
2022/03/17 00:22:50;;;;;;;19.02;16.70;;;;;;;11.42;100.00;101822.19;5284691;28;20024;-70
2022/03/17 00:25:21;;;;;;;17.10;15.18;;;;;;;11.41;100.00;101817.91;5286732;28;20089;-70
2022/03/17 00:27:52;;;;;;;18.67;15.48;;;;;;;11.43;100.00;101805.47;5286875;28;20135;-70
2022/03/17 00:30:24;;;;;;;18.40;15.82;;;;;;;11.44;100.00;101822.09;5285692;28;20051;-70
2022/03/17 00:32:56;;;;;;;20.58;16.17;;;;;;;11.40;100.00;101818.00;5284629;28;20028;-70
2022/03/17 00:35:36;;;;;;;19.33;15.43;;;;;;;11.42;100.00;101816.09;5284743;28;20032;-70
2022/03/17 00:38:14;;;;;;;20.50;16.45;;;;;;;11.46;100.00;101820.19;5284696;28;20028;-70
2022/03/17 00:40:46;;;;;;;18.55;15.68;;;;;;;11.38;100.00;101818.13;5287269;28;20016;-70
2022/03/17 00:43:18;;;;;;;20.60;14.63;;;;;;;11.35;100.00;101823.56;5286171;28;20032;-70
2022/03/17 00:45:50;;;;;;;20.75;15.57;;;;;;;11.31;100.00;101822.13;5283437;28;20027;-70
2022/03/17 00:48:21;;;;;;;18.38;16.20;;;;;;;11.34;100.00;101827.16;5285087;28;20027;-70
2022/03/17 00:50:52;;;;;;;20.35;16.70;;;;;;;11.32;100.00;101828.22;5287308;28;20450;-70
2022/03/17 00:53:24;;;;;;;19.45;16.42;;;;;;;11.33;100.00;101835.16;5285904;28;20024;-70
2022/03/17 00:55:55;;;;;;;21.55;16.70;;;;;;;11.32;100.00;101833.47;5283975;28;20021;-70
2022/03/17 00:58:29;;;;;;;18.55;16.20;;;;;;;11.28;100.00;101829.38;5285259;28;20058;-70
2022/03/17 01:01:00;;;;;;;18.45;15.13;;;;;;;11.28;100.00;101838.09;5284416;28;20042;-70
2022/03/17 01:03:31;;;;;;;20.27;16.30;;;;;;;11.27;100.00;101835.59;5285117;28;21456;-70
2022/03/17 01:06:03;;;;;;;18.05;16.13;;;;;;;11.24;100.00;101827.94;5282584;28;20032;-70
2022/03/17 01:08:34;;;;;;;18.58;15.55;;;;;;;11.22;100.00;101827.22;5285114;28;20058;-70
2022/03/17 01:11:06;;;;;;;20.02;16.92;;;;;;;11.22;100.00;101835.91;5284496;28;20020;-70
2022/03/17 01:13:37;;;;;;;19.08;16.05;;;;;;;11.23;100.00;101837.59;5283656;28;20028;-70
2022/03/17 01:16:09;;;;;;;18.33;16.33;;;;;;;11.23;100.00;101839.38;5283324;28;20048;-70
2022/03/17 01:18:40;;;;;;;19.52;16.60;;;;;;;11.26;100.00;101839.16;5285575;28;20125;-70
2022/03/17 01:21:11;;;;;;;18.63;15.60;;;;;;;11.24;100.00;101826.13;5287498;28;20078;-70
2022/03/17 01:23:42;;;;;;;20.40;16.20;;;;;;;11.24;100.00;101831.38;5284310;28;20050;-70
2022/03/17 01:26:14;;;;;;;19.63;15.73;;;;;;;11.26;100.00;101819.00;5284057;28;20051;-70
2022/03/17 01:28:45;;;;;;;20.55;16.13;;;;;;;11.26;100.00;101823.41;5285465;28;20036;-70
2022/03/17 01:31:16;;;;;;;20.17;15.90;;;;;;;11.27;100.00;101831.16;5282961;28;20372;-70
2022/03/17 01:33:47;;;;;;;21.42;17.20;;;;;;;11.29;100.00;101831.03;5284912;28;20024;-70
2022/03/17 01:36:19;;;;;;;19.23;16.45;;;;;;;11.30;100.00;101828.34;5287540;28;20079;-70
2022/03/17 01:38:50;;;;;;;20.23;16.73;;;;;;;11.30;100.00;101825.72;5289291;28;20021;-70
2022/03/17 01:41:21;;;;;;;22.63;16.88;;;;;;;11.32;100.00;101818.53;5286443;28;20029;-70
2022/03/17 01:43:52;;;;;;;21.15;17.17;;;;;;;11.31;100.00;101827.38;5287941;28;20031;-70
2022/03/17 01:46:24;;;;;;;20.50;16.98;;;;;;;11.31;100.00;101832.63;5290725;28;20515;-70
2022/03/17 01:48:55;;;;;;;18.15;16.25;;;;;;;11.31;100.00;101834.41;5287127;28;20028;-70
2022/03/17 01:51:26;;;;;;;23.02;17.42;;;;;;;11.32;100.00;101833.47;5287045;28;20453;-70
2022/03/17 01:53:58;;;;;;;20.90;17.15;;;;;;;11.31;100.00;101835.25;5287665;28;20513;-70
2022/03/17 01:56:29;;;;;;;20.52;16.95;;;;;;;11.31;100.00;101829.16;5288220;28;20124;-70
2022/03/17 01:59:01;;;;;;;19.92;17.08;;;;;;;11.30;100.00;101830.94;5290140;28;20044;-70
2022/03/17 02:01:33;;;;;;;21.73;18.55;;;;;;;11.30;100.00;101824.88;5285819;28;20473;-70
2022/03/17 02:04:05;;;;;;;20.80;16.88;;;;;;;11.31;100.00;101818.66;5287351;28;20039;-70
2022/03/17 02:06:37;;;;;;;22.50;17.23;;;;;;;11.34;100.00;101826.31;5285518;28;20077;-70
2022/03/17 02:09:08;;;;;;;23.80;17.52;;;;;;;11.33;100.00;101828.13;5288195;28;20036;-71
2022/03/17 02:14:34;;;;;;;21.95;15.88;;;;;;;11.26;100.00;101826.88;5286331;28;20131;-70
2022/03/17 02:17:06;;;;;;;18.95;16.27;;;;;;;11.33;100.00;101836.00;5290013;28;20416;-70
2022/03/17 02:19:37;;;;;;;21.52;17.30;;;;;;;11.36;100.00;101841.00;5287421;28;20057;-70
2022/03/17 02:22:12;;;;;;;21.83;17.48;;;;;;;11.40;100.00;101839.84;5285804;28;20511;-70
2022/03/17 02:27:48;;;;;;;21.95;16.80;;;;;;;11.44;100.00;101841.28;5286835;28;20462;-70
2022/03/17 02:30:21;;;;;;;22.42;16.60;;;;;;;11.40;100.00;101852.09;5287564;28;20111;-70
2022/03/17 02:33:01;;;;;;;19.38;16.83;;;;;;;11.48;100.00;101860.28;5288044;28;20093;-70
2022/03/17 02:35:33;;;;;;;22.98;18.10;;;;;;;11.38;100.00;101862.72;5288169;28;20482;-70
2022/03/17 02:38:06;;;;;;;22.25;18.05;;;;;;;11.38;100.00;101851.38;5287291;28;20038;-70
2022/03/17 02:40:38;;;;;;;22.52;18.10;;;;;;;11.42;100.00;101868.59;5288812;28;20444;-70
2022/03/17 02:43:11;;;;;;;24.17;19.45;;;;;;;11.39;100.00;101864.38;5283348;28;20032;-70
2022/03/17 02:45:43;;;;;;;25.85;19.30;;;;;;;11.49;100.00;101871.63;5287540;28;20043;-70
2022/03/17 02:48:16;;;;;;;26.92;21.35;;;;;;;11.56;100.00;101876.31;5288490;28;20132;-70
2022/03/17 02:50:47;;;;;;;26.15;21.50;;;;;;;11.58;100.00;101881.44;5288755;28;20293;-70
2022/03/17 02:53:18;;;;;;;28.73;22.60;;;;;;;11.70;100.00;101891.03;5288611;28;20533;-70
2022/03/17 02:55:50;;;;;;;33.33;24.42;;;;;;;11.72;100.00;101886.53;5287226;28;20166;-70
2022/03/17 02:58:21;;;;;;;29.38;24.42;;;;;;;11.68;100.00;101892.94;5288133;28;20039;-70
2022/03/17 03:00:52;;;;;;;28.65;22.92;;;;;;;11.72;100.00;101909.31;5285127;28;20173;-70
2022/03/17 03:03:24;;;;;;;25.02;21.63;;;;;;;11.71;100.00;101910.28;5287618;28;20020;-70
2022/03/17 03:05:55;;;;;;;24.05;20.95;;;;;;;11.72;100.00;101919.81;5286812;28;20029;-70
2022/03/17 03:08:27;;;;;;;24.08;18.70;;;;;;;11.65;100.00;101922.88;5288897;28;20031;-70
2022/03/17 03:10:59;;;;;;;20.03;16.77;;;;;;;11.55;100.00;101927.09;5284028;28;20024;-70
2022/03/17 03:13:30;;;;;;;19.15;14.65;;;;;;;11.44;100.00;101935.75;5288751;28;20031;-70
2022/03/17 03:16:01;;;;;;;16.02;14.27;;;;;;;11.36;100.00;101947.72;5286745;28;20015;-70
2022/03/17 03:18:32;;;;;;;15.27;13.77;;;;;;;11.29;100.00;101957.84;5282758;28;20027;-69
2022/03/17 03:21:04;;;;;;;14.68;13.23;;;;;;;11.22;100.00;101967.06;5287932;28;20105;-69
2022/03/17 03:23:35;;;;;;;14.45;12.98;;;;;;;11.17;100.00;101972.66;5288919;28;20422;-67
2022/03/17 03:26:06;;;;;;;13.05;11.70;;;;;;;11.13;100.00;101973.78;5287252;28;20037;-69
2022/03/17 03:28:39;;;;;;;12.98;11.68;;;;;;;11.04;100.00;101989.31;5289289;28;20027;-69
2022/03/17 03:31:10;;;;;;;13.32;12.02;;;;;;;10.98;100.00;101977.44;5287685;28;20053;-69
2022/03/17 03:33:42;;;;;;;12.38;11.07;;;;;;;10.89;100.00;101994.66;5285245;28;20473;-69
2022/03/17 03:39:02;;;;;;;13.95;12.55;;;;;;;10.78;100.00;101998.94;5287598;28;20028;-69
2022/03/17 03:41:34;;;;;;;13.57;12.18;;;;;;;10.72;100.00;102008.06;5283592;28;20029;-69
2022/03/17 03:44:05;;;;;;;14.68;13.00;;;;;;;10.67;100.00;102020.63;5281726;28;20016;-69
2022/03/17 03:46:36;;;;;;;13.50;12.10;;;;;;;10.60;100.00;102017.56;5280999;28;20032;-69
2022/03/17 03:49:07;;;;;;;12.43;11.10;;;;;;;10.60;100.00;102035.06;5285802;28;20027;-68
2022/03/17 03:51:39;;;;;;;14.00;12.52;;;;;;;10.49;100.00;102043.63;5286045;28;20047;-69
2022/03/17 03:54:13;;;;;;;14.98;13.10;;;;;;;10.41;100.00;102057.22;5286041;28;20035;-69
2022/03/17 03:56:53;;;;;;;15.48;13.65;;;;;;;10.42;100.00;102065.97;5284645;28;20028;-69
2022/03/17 03:59:26;;;;;;;15.60;13.77;;;;;;;10.30;100.00;102071.97;5284058;28;20056;-68
2022/03/17 04:02:06;;;;;;;18.17;14.70;;;;;;;10.27;100.00;102080.88;5284327;28;20033;-68
2022/03/17 04:04:41;;;;;;;22.15;17.17;;;;;;;10.15;100.00;102089.47;5284342;28;20055;-68
2022/03/17 04:07:13;;;;;;;19.23;16.13;;;;;;;10.03;100.00;102090.22;5285275;28;20499;-69
2022/03/17 04:09:44;;;;;;;19.83;16.38;;;;;;;10.01;100.00;102095.56;5287894;28;20182;-69
2022/03/17 04:12:16;;;;;;;22.88;16.65;;;;;;;9.95;100.00;102102.03;5286059;28;20028;-69
2022/03/17 04:14:47;;;;;;;18.15;15.98;;;;;;;9.95;100.00;102109.88;5288510;28;20013;-69
2022/03/17 04:17:18;;;;;;;21.27;16.92;;;;;;;9.84;100.00;102129.78;5287113;28;20070;-69
2022/03/17 04:19:50;;;;;;;21.23;17.17;;;;;;;9.78;100.00;102135.44;5286332;28;20026;-68
2022/03/17 04:22:21;;;;;;;22.40;18.05;;;;;;;9.69;100.00;102142.88;5282693;28;20082;-66
2022/03/17 04:24:53;;;;;;;18.48;16.35;;;;;;;9.58;100.00;102147.06;5286303;28;20026;-69
2022/03/17 04:27:24;;;;;;;19.55;14.30;;;;;;;9.52;100.00;102163.16;5284335;28;20031;-69
2022/03/17 04:29:56;;;;;;;19.05;12.90;;;;;;;9.57;100.00;102168.94;5264962;28;20038;-69
2022/03/17 04:32:27;;;;;;;17.90;14.80;;;;;;;9.45;100.00;102171.34;5285208;28;20016;-69
2022/03/17 04:34:58;;;;;;;18.85;14.20;;;;;;;9.45;100.00;102181.81;5287134;28;20039;-69
2022/03/17 04:37:30;;;;;;;23.40;14.73;;;;;;;9.32;100.00;102191.31;5283051;28;20135;-69
2022/03/17 04:40:03;;;;;;;23.05;14.18;;;;;;;9.30;100.00;102205.41;5284118;28;20024;-68
2022/03/17 04:42:35;;;;;;;;;;;;;;;9.69;100.00;102210.06;5284738;28;20431;-69
2022/03/17 04:45:06;;;;;;;24.00;12.47;;;;;;;9.36;100.00;102205.91;5289228;28;19912;-69
2022/03/17 04:47:37;;;;;;;21.73;13.73;;;;;;;9.20;100.00;102211.16;5282282;28;20036;-69
2022/03/17 04:50:09;;;;;;;21.73;13.52;;;;;;;9.18;100.00;102220.03;5282880;28;20059;-68
2022/03/17 04:55:30;;;;;;;22.25;11.30;;;;;;;9.17;100.00;102234.03;5286866;28;20397;-69
2022/03/17 04:58:02;;;;;;;18.50;12.38;;;;;;;9.10;100.00;102243.16;5282107;28;20035;-69
2022/03/17 05:00:33;;;;;;;20.55;12.27;;;;;;;9.08;100.00;102252.84;5282833;28;20040;-66
2022/03/17 05:03:04;;;;;;;19.55;12.63;;;;;;;9.11;100.00;102265.75;5285833;28;20049;-69
2022/03/17 05:05:36;;;;;;;19.02;12.52;;;;;;;9.06;100.00;102265.19;5283030;28;20032;-67
2022/03/17 05:08:07;;;;;;;20.80;12.48;;;;;;;9.08;100.00;102276.38;5283927;28;20032;-68
2022/03/17 05:10:39;;;;;;;22.83;11.35;;;;;;;9.08;100.00;102282.44;5286715;28;20063;-68
2022/03/17 05:13:12;;;;;;;19.77;11.13;;;;;;;9.13;100.00;102301.34;5284669;28;20028;-67
2022/03/17 05:15:43;;;;;;;19.25;10.32;;;;;;;9.05;100.00;102313.97;5281927;28;20020;-66
2022/03/17 05:18:15;;;;;;;15.30;9.13;;;;;;;8.98;100.00;102315.25;5286225;28;20405;-69
2022/03/17 05:20:47;;;;;;;13.05;7.47;;;;;;;8.96;100.00;102323.16;5283945;28;20025;-68
2022/03/17 05:23:20;;;;;;;17.00;7.95;;;;;;;8.90;100.00;102336.59;5281578;28;20136;-68
2022/03/17 05:25:52;;;;;;;15.32;5.93;;;;;;;8.82;100.00;102333.53;5284498;28;20028;-67
2022/03/17 05:28:23;;;;;;;12.07;4.90;;;;;;;8.78;100.00;102347.69;5283843;28;20031;-69
2022/03/17 05:30:55;;;;;;;12.23;3.90;;;;;;;8.85;100.00;102342.97;5279284;28;20462;-68
2022/03/17 05:33:26;;;;;;;12.82;4.70;;;;;;;8.82;100.00;102346.59;5282958;28;20036;-67
2022/03/17 05:35:57;;;;;;;11.20;4.30;;;;;;;8.77;100.00;102359.06;5286463;28;20373;-69
2022/03/17 05:38:28;;;;;;;11.13;4.13;;;;;;;8.78;100.00;102369.41;5282679;28;20042;-68
2022/03/17 05:41:00;;;;;;;11.13;4.72;;;;;;;8.78;100.00;102365.97;5286451;28;20031;-68
2022/03/17 05:43:31;;;;;;;10.70;4.07;;;;;;;8.76;100.00;102381.75;5284736;28;20024;-69
2022/03/17 05:46:03;;;;;;;10.68;4.35;;;;;;;8.76;100.00;102400.03;5283159;28;20028;-69
2022/03/17 05:48:34;;;;;;;8.20;3.15;;;;;;;8.82;100.00;102391.00;5283732;28;20028;-69
2022/03/17 05:51:05;;;;;;;10.70;3.38;;;;;;;8.79;100.00;102406.88;5285134;28;20158;-69
2022/03/17 05:53:36;;;;;;;11.30;3.70;;;;;;;8.75;100.00;102414.03;5280101;28;20147;-67
2022/03/17 05:56:08;;;;;;;9.48;3.90;;;;;;;8.73;100.00;102417.63;5277076;28;20285;-68
2022/03/17 05:58:39;;;;;;;9.70;3.90;;;;;;;8.72;100.00;102418.56;5281471;28;20052;-69
2022/03/17 06:01:11;;;;;;;13.35;4.13;;;;;;;8.75;100.00;102429.72;5282061;28;21182;-68
2022/03/17 06:03:42;;;;;;;9.23;4.00;;;;;;;8.72;100.00;102436.84;5278657;28;20052;-69
2022/03/17 06:06:14;;;;;;;9.25;4.30;;;;;;;8.72;100.00;102436.84;5285312;28;20124;-67
2022/03/17 06:08:45;;;;;;;7.10;3.58;;;;;;;8.67;100.00;102441.47;5279539;28;20028;-68
2022/03/17 06:11:16;;;;;;;8.23;2.95;;;;;;;8.65;100.00;102452.00;5282825;28;20028;-69
2022/03/17 06:13:47;;;;;;;10.15;4.28;;;;;;;8.65;100.00;102454.63;5277891;28;20024;-68
2022/03/17 06:16:20;;;;;;;9.55;3.83;;;;;;;8.59;100.00;102473.19;5280179;28;20024;-68
2022/03/17 06:18:52;;;;;;;8.82;3.25;;;;;;;8.58;100.00;102471.53;5282467;28;20036;-69
2022/03/17 06:21:23;;;;;;;11.30;3.50;;;;;;;8.57;100.00;102482.91;5279905;28;20028;-68
2022/03/17 06:23:54;;;;;;;10.70;3.60;;;;;;;8.56;100.00;102488.19;5283943;28;20048;-68
2022/03/17 06:26:25;;;;;;;11.68;3.70;;;;;;;8.55;100.00;102494.34;5287321;28;20028;-69
2022/03/17 06:28:57;;;;;;;10.20;3.97;;;;;;;8.55;100.00;102500.41;5284492;28;20294;-68
2022/03/17 06:31:28;;;;;;;9.20;4.15;;;;;;;8.55;100.00;102500.41;5283840;28;20033;-69
2022/03/17 06:33:59;;;;;;;11.82;4.20;;;;;;;8.54;100.00;102503.94;5286235;28;20016;-69
2022/03/17 06:36:30;;;;;;;11.02;4.30;;;;;;;8.54;100.00;102503.94;5287900;28;20024;-68
2022/03/17 06:39:02;;;;;;;12.65;4.00;;;;;;;8.56;100.00;102515.19;5282449;28;20384;-69
2022/03/17 06:41:33;;;;;;;8.45;3.78;;;;;;;8.55;100.00;102521.31;5285812;28;20477;-68
2022/03/17 06:44:05;;;;;;;10.40;3.42;;;;;;;8.52;100.00;102524.94;5284961;28;20441;-68
2022/03/17 06:46:36;;;;;;;7.47;3.22;;;;;;;8.53;100.00;102541.44;5283866;28;20503;-68
2022/03/17 06:49:08;;;;;;;9.07;3.10;;;;;;;8.54;100.00;102548.34;5289839;28;20024;-67
2022/03/17 06:51:39;;;;;;;9.85;3.80;;;;;;;8.55;100.00;102550.03;5280124;28;20493;-69
2022/03/17 06:54:10;;;;;;;8.27;3.88;;;;;;;8.53;100.00;102547.50;5288823;28;20281;-68
2022/03/17 06:56:41;;;;;;;9.02;2.97;;;;;;;8.56;100.00;102566.53;5286154;28;20026;-69
2022/03/17 06:59:13;;;;;;;10.90;3.53;;;;;;;8.60;100.00;102566.34;5287990;28;20512;-67
2022/03/17 07:01:44;;;;;;;9.35;3.65;;;;;;;8.59;100.00;102574.25;5285730;28;20488;-68
2022/03/17 07:04:15;;;;;;;8.40;2.65;;;;;;;8.63;100.00;102581.84;5283040;28;20398;-68
2022/03/17 07:06:46;;;;;;;7.38;2.30;;;;;;;8.62;100.00;102592.38;5287714;28;20469;-68
2022/03/17 07:09:18;;;;;;;6.68;2.80;;;;;;;8.62;100.00;102582.78;5290305;28;20369;-68
2022/03/17 07:11:49;;;;;;;8.65;2.17;;;;;;;8.61;100.00;102595.94;5288028;28;20028;-68
2022/03/17 07:14:20;;;;;;;7.28;2.20;;;;;;;8.56;100.00;102595.28;5284100;28;20333;-68
2022/03/17 07:16:52;;;;;;;5.97;1.50;;;;;;;8.56;100.00;102596.16;5282510;28;20028;-68
2022/03/17 07:19:23;;;;;;;7.22;1.80;;;;;;;8.55;100.00;102611.88;5288858;28;20500;-68
2022/03/17 07:21:54;;;;;;;6.53;1.80;;;;;;;8.59;100.00;102608.22;5283848;28;20028;-68
2022/03/17 07:24:26;;;;;;;6.32;1.75;;;;;;;8.52;100.00;102620.72;5284327;28;20370;-67
2022/03/17 07:26:58;;;;;;;10.35;2.55;;;;;;;8.55;100.00;102617.94;5284569;28;20028;-68
2022/03/17 07:29:30;;;;;;;7.47;2.50;;;;;;;8.49;100.00;102629.56;5286269;28;20051;-67
2022/03/17 07:32:02;;;;;;;9.52;2.22;;;;;;;8.45;100.00;102630.63;5284858;28;20036;-68
2022/03/17 07:34:33;;;;;;;8.55;2.55;;;;;;;8.47;100.00;102646.22;5285675;28;20024;-69
2022/03/17 07:37:04;;;;;;;7.68;1.85;;;;;;;8.45;100.00;102645.44;5288553;28;20481;-69
2022/03/17 07:39:36;;;;;;;6.72;1.95;;;;;;;8.51;100.00;102655.59;5282621;28;20035;-68
2022/03/17 07:42:08;;;;;;;7.68;2.40;;;;;;;8.47;100.00;102656.66;5282645;28;20390;-68
2022/03/17 07:44:40;;;;;;;11.60;2.20;;;;;;;8.50;100.00;102670.44;5279663;28;20469;-68
2022/03/17 07:47:12;;;;;;;7.80;2.10;;;;;;;8.54;100.00;102665.91;5276884;28;20032;-68
2022/03/17 07:49:43;;;;;;;8.10;1.67;;;;;;;8.59;100.00;102676.13;5281862;28;20385;-68
2022/03/17 07:52:14;;;;;;;6.68;1.73;;;;;;;8.63;100.00;102672.44;5281157;28;20054;-68
2022/03/17 07:54:46;;;;;;;11.38;2.15;;;;;;;8.64;100.00;102677.63;5283906;28;20103;-68
2022/03/17 07:57:18;;;;;;;8.35;2.08;;;;;;;8.66;100.00;102688.00;5270123;28;20714;-68
2022/03/17 07:59:50;;;;;;;6.50;1.70;;;;;;;8.71;100.00;102686.88;5275533;28;20040;-68
2022/03/17 08:02:21;;;;;;;11.38;2.45;;;;;;;8.73;100.00;102694.63;5282976;28;20024;-69
2022/03/17 08:04:53;;;;;;;5.05;1.35;;;;;;;8.74;100.00;102694.53;5286227;28;20634;-68
2022/03/17 08:07:25;;;;;;;6.43;1.60;;;;;;;8.77;100.00;102702.25;5287701;28;20056;-69
2022/03/17 08:09:59;;;;;;;7.75;1.63;;;;;;;8.81;100.00;102705.56;5286820;28;20312;-67
2022/03/17 08:12:31;;;;;;;7.13;1.95;;;;;;;8.86;100.00;102714.00;5283197;28;20024;-68
2022/03/17 08:15:05;;;;;;;7.43;1.83;;;;;;;8.89;100.00;102713.03;5281305;28;20034;-67
2022/03/17 08:17:36;;;;;;;12.30;1.80;;;;;;;8.85;100.00;102714.94;5282050;28;20020;-68
2022/03/17 08:20:08;;;;;;;13.32;1.98;;;;;;;8.92;100.00;102720.72;5281790;28;20024;-69
2022/03/17 08:22:42;;;;;;;12.32;1.60;;;;;;;8.97;100.00;102731.81;5279470;28;20515;-68
2022/03/17 08:25:13;;;;;;;6.75;1.70;;;;;;;8.99;100.00;102740.44;5282283;28;20042;-69
2022/03/17 08:27:44;;;;;;;9.20;1.75;;;;;;;9.08;100.00;102760.06;5283828;28;20016;-69
2022/03/17 08:30:16;;;;;;;6.32;1.52;;;;;;;9.14;100.00;102751.94;5284561;28;20034;-69
2022/03/17 08:32:49;;;;;;;8.60;1.95;;;;;;;9.22;100.00;102760.25;5284290;28;20016;-68
2022/03/17 08:35:20;;;;;;;9.38;1.63;;;;;;;9.21;100.00;102759.41;5281963;28;20040;-68
2022/03/17 08:37:51;;;;;;;6.60;1.40;;;;;;;9.27;100.00;102771.31;5278333;28;20040;-67
2022/03/17 08:40:23;;;;;;;8.30;1.70;;;;;;;9.22;100.00;102783.78;5275424;28;20550;-69
2022/03/17 08:42:54;;;;;;;6.13;1.40;;;;;;;9.24;100.00;102784.53;5282432;28;20051;-72
2022/03/17 08:51:07;;;;;;;10.05;1.60;;;;;;;9.26;100.00;102806.25;5281557;28;20025;-66
2022/03/17 08:53:38;;;;;;;5.47;1.48;;;;;;;9.32;100.00;102803.34;5284342;28;20055;-68
2022/03/17 08:56:09;;;;;;;12.10;1.60;;;;;;;9.32;100.00;102803.34;5281578;28;20043;-68
2022/03/17 08:58:41;;;;;;;7.53;1.60;;;;;;;9.39;100.00;102809.13;5279702;28;20536;-68
2022/03/17 09:01:12;;;;;;;12.75;2.08;;;;;;;9.39;100.00;102804.72;5286187;28;20569;-67
2022/03/17 09:03:43;;;;;;;9.57;1.85;;;;;;;9.39;100.00;102809.13;5281168;28;20093;-68
2022/03/17 09:06:15;;;;;;;10.13;2.58;;;;;;;9.41;100.00;102810.75;5283680;28;20031;-68
2022/03/17 09:08:46;;;;;;;10.20;1.63;;;;;;;9.40;100.00;102822.13;5280463;28;20025;-68
2022/03/17 09:11:17;;;;;;;6.38;1.25;;;;;;;9.43;100.00;102826.34;5281247;28;20454;-68
2022/03/17 09:13:49;;;;;;;7.25;1.50;;;;;;;9.41;100.00;102818.59;5288367;28;20039;-70
2022/03/17 09:16:21;;;;;;;9.37;1.93;;;;;;;9.40;100.00;102832.59;5279621;28;20059;-70
2022/03/17 09:18:52;;;;;;;9.25;1.73;;;;;;;9.43;100.00;102832.47;5279087;28;20460;-69
2022/03/17 09:21:25;;;;;;;10.07;1.40;;;;;;;9.44;100.00;102836.75;5279893;28;20616;-69
2022/03/17 09:23:58;;;;;;;7.45;1.50;;;;;;;9.52;100.00;102844.25;5278895;28;20040;-69
2022/03/17 09:26:33;;;;;;;8.45;1.77;;;;;;;9.54;100.00;102854.63;5282839;28;20035;-70
2022/03/17 09:29:04;;;;;;;7.15;1.48;;;;;;;9.56;100.00;102850.19;5266861;28;20469;-70
2022/03/17 09:31:35;;;;;;;9.43;1.55;;;;;;;9.57;100.00;102846.63;5283978;28;20036;-69
2022/03/17 09:34:07;;;;;;;8.45;1.73;;;;;;;9.58;100.00;102857.00;5281364;28;20028;-69
2022/03/17 09:36:39;;;;;;;7.70;1.45;;;;;;;9.65;100.00;102852.34;5281612;28;20037;-69
2022/03/17 09:42:00;;;;;;;6.32;1.63;;;;;;;9.70;100.00;102876.53;5269867;28;20064;-69
2022/03/17 09:44:31;;;;;;;8.45;1.88;;;;;;;9.70;100.00;102868.69;5273402;28;20397;-69
2022/03/17 09:47:03;;;;;;;9.15;1.42;;;;;;;9.76;100.00;102873.59;5274955;28;20714;-69
2022/03/17 09:49:37;;;;;;;8.70;1.75;;;;;;;9.76;100.00;102876.22;5278770;28;20055;-69
2022/03/17 09:52:13;;;;;;;6.28;1.58;;;;;;;9.80;100.00;102877.75;5281795;28;20043;-70
2022/03/17 09:54:45;;;;;;;7.47;1.92;;;;;;;9.76;100.00;102881.44;5276729;28;20540;-69
2022/03/17 09:57:17;;;;;;;10.88;2.10;;;;;;;9.90;100.00;102888.63;5279132;28;20532;-69
2022/03/17 09:59:56;;;;;;;8.73;1.77;;;;;;;9.98;100.00;102896.97;5281665;28;20079;-69
2022/03/17 10:02:27;;;;;;;6.95;1.45;;;;;;;10.02;100.00;102905.50;5283575;28;20033;-70
2022/03/17 10:04:59;;;;;;;8.07;2.25;;;;;;;9.94;100.00;102914.59;5285426;28;20035;-69
2022/03/17 10:07:34;;;;;;;8.83;1.70;;;;;;;10.00;100.00;102926.56;5282063;28;20548;-70
2022/03/17 10:10:07;;;;;;;8.48;1.73;;;;;;;10.03;100.00;102921.13;5283397;28;20740;-69
2022/03/17 10:12:39;;;;;;;10.80;1.55;;;;;;;10.04;100.00;102928.09;5285351;28;20142;-70
2022/03/17 10:15:18;;;;;;;8.93;1.67;;;;;;;10.19;100.00;102931.69;5276118;28;20038;-70
2022/03/17 10:17:49;;;;;;;6.82;1.65;;;;;;;10.14;100.00;102933.72;5285028;28;20028;-70
2022/03/17 10:20:29;;;;;;;8.57;1.55;;;;;;;10.22;100.00;102940.25;5280513;28;20134;-69
2022/03/17 10:23:01;;;;;;;7.88;1.67;;;;;;;10.11;100.00;102941.72;5287007;28;20112;-70
2022/03/17 10:25:34;;;;;;;11.65;1.88;;;;;;;10.14;100.00;102957.28;5286312;28;20036;-69
2022/03/17 10:28:07;;;;;;;8.95;1.90;;;;;;;10.15;100.00;102956.34;5283204;28;20405;-69
2022/03/17 10:30:40;;;;;;;5.80;1.45;;;;;;;10.17;100.00;102962.38;5282185;28;20116;-69
2022/03/17 10:33:20;;;;;;;9.65;1.70;;;;;;;10.31;100.00;102964.34;5276453;28;20024;-69
2022/03/17 10:35:51;;;;;;;6.00;2.05;;;;;;;10.20;100.00;102964.84;5279430;28;20048;-69
2022/03/17 10:38:23;;;;;;;7.35;1.67;;;;;;;10.19;100.00;102964.00;5279116;28;20110;-69
2022/03/17 10:41:02;;;;;;;7.13;1.40;;;;;;;10.33;100.00;102979.06;5287117;28;20024;-69
2022/03/17 10:43:34;;;;;;;6.03;1.98;;;;;;;10.22;100.00;102976.09;5282791;28;20038;-69
2022/03/17 10:46:17;;;;;;;9.30;2.40;;;;;;;10.28;100.00;102981.06;5276360;28;20028;-70
2022/03/17 10:49:01;;;;;;;6.22;1.58;;;;;;;10.42;100.00;102983.00;5278703;28;20036;-70
2022/03/17 10:51:33;;;;;;;8.77;1.60;;;;;;;10.38;100.00;102994.53;5279559;28;20560;-70
2022/03/17 10:54:17;;;;;;;8.40;1.75;;;;;;;10.35;100.00;103000.78;5279455;28;20041;-70
2022/03/17 10:57:10;;;;;;;8.25;1.50;;;;;;;10.41;100.00;103005.72;5280942;28;20043;-70
2022/03/17 10:59:44;;;;;;;12.70;2.13;;;;;;;10.22;100.00;103012.75;5278807;28;20040;-70
2022/03/17 11:02:25;;;;;;;9.75;2.35;;;;;;;10.16;100.00;103018.31;5281741;28;20437;-69
2022/03/17 11:05:00;;;;;;;4.60;1.50;;;;;;;10.16;100.00;103026.16;5276917;28;20032;-70
2022/03/17 11:07:32;;;;;;;4.50;1.48;;;;;;;10.16;100.00;103021.78;5279837;28;20028;-69
2022/03/17 11:10:05;;;;;;;4.60;1.00;;;;;;;10.24;100.00;103031.88;5281615;28;20484;-69
2022/03/17 11:12:37;;;;;;;5.10;1.35;;;;;;;10.24;100.00;103030.09;5283574;28;20458;-69
2022/03/17 11:15:09;;;;;;;4.75;1.17;;;;;;;10.34;100.00;103035.78;5281386;28;20024;-70
2022/03/17 11:17:49;;;;;;;6.20;1.48;;;;;;;10.51;100.00;103032.31;5280118;28;20166;-70
2022/03/17 11:20:23;;;;;;;3.47;1.05;;;;;;;10.50;100.00;103037.66;5287341;28;20035;-70
2022/03/17 11:23:22;;;;;;;6.38;1.58;;;;;;;10.64;100.00;103045.66;5288859;28;20042;-69
2022/03/17 11:25:56;;;;;;;6.85;1.17;;;;;;;10.65;100.00;103045.59;5276301;28;20074;-69
2022/03/17 11:28:36;;;;;;;6.18;1.42;;;;;;;10.66;100.00;103052.53;5279712;28;20032;-70
2022/03/17 11:31:08;;;;;;;8.05;1.75;;;;;;;10.68;100.00;103052.44;5284619;28;20036;-70
2022/03/17 11:33:43;;;;;;;5.78;1.50;;;;;;;10.68;100.00;103048.06;5280897;28;20036;-69
2022/03/17 11:36:21;;;;;;;6.78;1.88;;;;;;;10.77;100.00;103059.03;5282188;28;20028;-70
2022/03/17 11:39:16;;;;;;;4.40;1.60;;;;;;;10.90;100.00;103054.84;5283915;28;20251;-69
2022/03/17 11:41:48;;;;;;;4.93;1.98;;;;;;;10.76;100.00;103058.19;5277760;28;20028;-70
2022/03/17 11:44:33;;;;;;;8.43;2.10;;;;;;;10.91;100.00;103067.91;5277720;28;20034;-70
2022/03/17 11:47:10;;;;;;;7.10;2.15;;;;;;;10.88;100.00;103057.56;5270297;28;20036;-70
2022/03/17 11:49:46;;;;;;;7.28;1.92;;;;;;;10.88;100.00;103062.78;5281667;28;20028;-70
2022/03/17 11:52:17;;;;;;;6.70;1.70;;;;;;;11.05;100.00;103074.19;5281711;28;20072;-69
2022/03/17 11:55:09;;;;;;;6.20;1.90;;;;;;;10.99;100.00;103074.53;5265705;28;20080;-70
2022/03/17 11:58:20;;;;;;;9.15;2.10;;;;;;;11.07;100.00;103082.84;5271735;28;20089;-70
2022/03/17 12:01:13;;;;;;;7.13;2.03;;;;;;;10.93;100.00;103084.38;5281214;28;20389;-69